createdAt,value
2019-04-10T00:00:41.285Z,83.70
2019-04-10T00:03:24.011Z,84.20
2019-04-10T00:05:44.444Z,84.10
2019-04-10T00:08:15.310Z,84.60
2019-04-10T00:10:44.329Z,84.50
2019-04-10T00:13:14.218Z,85.20
2019-04-10T00:15:43.472Z,85.60
2019-04-10T00:18:13.651Z,85.20
2019-04-10T00:20:43.087Z,85.30
2019-04-10T00:23:13.055Z,85.50
2019-04-10T00:25:43.206Z,86.00
2019-04-10T00:28:13.091Z,86.80
2019-04-10T00:30:43.007Z,86.70
2019-04-10T00:33:12.315Z,86.90
2019-04-10T00:35:41.523Z,87.90
2019-04-10T00:38:10.587Z,87.90
2019-04-10T00:40:39.682Z,88.10
2019-04-10T00:43:08.696Z,89.10
2019-04-10T00:45:39.718Z,89.70
2019-04-10T00:48:09.873Z,89.80
2019-04-10T00:50:39.323Z,90.20
2019-04-10T00:53:08.553Z,90.30
2019-04-10T00:55:37.670Z,90.30
2019-04-10T00:58:06.876Z,90.50
2019-04-10T01:00:36.932Z,90.70
2019-04-10T01:03:05.841Z,90.90
2019-04-10T01:05:37.517Z,91.00
2019-04-10T01:08:06.695Z,91.30
2019-04-10T01:10:36.748Z,91.50
2019-04-10T01:13:06.214Z,91.40
2019-04-10T01:15:35.053Z,91.60
2019-04-10T01:18:04.603Z,91.80
2019-04-10T01:20:33.506Z,92.10
2019-04-10T01:23:03.587Z,92.30
2019-04-10T01:25:32.586Z,92.20
2019-04-10T01:28:02.602Z,92.20
2019-04-10T01:30:32.700Z,92.40
2019-04-10T01:33:01.949Z,92.50
2019-04-10T01:35:32.162Z,92.80
2019-04-10T01:38:04.247Z,92.80
2019-04-10T01:40:31.699Z,93.30
2019-04-10T01:43:08.212Z,93.20
2019-04-10T01:45:31.542Z,93.40
2019-04-10T01:48:00.343Z,93.50
2019-04-10T01:50:30.737Z,93.80
2019-04-10T01:52:59.645Z,93.90
2019-04-10T01:55:31.051Z,94.30
2019-04-10T01:58:00.994Z,94.30
2019-04-10T02:00:30.597Z,94.30
2019-04-10T02:02:59.346Z,94.40
2019-04-10T02:05:28.262Z,94.70
2019-04-10T02:08:05.244Z,94.60
2019-04-10T02:10:28.060Z,95.00
2019-04-10T02:12:57.053Z,94.90
2019-04-10T02:15:26.018Z,95.00
2019-04-10T02:17:57.076Z,95.40
2019-04-10T02:20:27.140Z,95.60
2019-04-10T02:22:58.173Z,95.50
2019-04-10T02:25:27.007Z,95.70
2019-04-10T02:27:56.395Z,95.80
2019-04-10T02:30:26.170Z,95.70
2019-04-10T02:32:55.882Z,96.00
2019-04-10T02:35:27.308Z,96.00
2019-04-10T02:37:58.417Z,95.90
2019-04-10T02:40:26.963Z,96.20
2019-04-10T02:42:59.086Z,96.30
2019-04-10T02:45:28.379Z,96.30
2019-04-10T02:47:57.228Z,96.30
2019-04-10T02:50:27.255Z,96.60
2019-04-10T02:52:57.205Z,96.30
2019-04-10T02:55:27.294Z,96.70
2019-04-10T02:57:56.933Z,96.60
2019-04-10T03:00:28.176Z,97.00
2019-04-10T03:02:59.175Z,96.80
2019-04-10T03:05:28.020Z,97.00
2019-04-10T03:07:58.308Z,97.20
2019-04-10T03:10:38.311Z,97.20
2019-04-10T03:12:58.717Z,97.40
2019-04-10T03:15:29.538Z,97.50
2019-04-10T03:17:58.753Z,97.50
2019-04-10T03:20:27.757Z,97.30
2019-04-10T03:22:58.804Z,97.40
2019-04-10T03:25:28.888Z,97.40
2019-04-10T03:27:58.718Z,97.40
2019-04-10T03:30:29.472Z,97.30
2019-04-10T03:33:21.863Z,97.20
2019-04-10T03:35:51.454Z,97.40
2019-04-10T03:38:21.582Z,97.40
2019-04-10T03:40:53.253Z,97.40
2019-04-10T03:43:22.802Z,97.40
2019-04-10T03:45:51.607Z,97.40
2019-04-10T03:48:20.339Z,97.60
2019-04-10T03:50:50.119Z,97.40
2019-04-10T03:53:20.178Z,97.80
2019-04-10T03:55:50.542Z,97.70
2019-04-10T03:58:20.266Z,98.00
2019-04-10T04:00:50.653Z,97.70
2019-04-10T04:03:20.417Z,97.70
2019-04-10T04:05:50.959Z,97.50
2019-04-10T04:08:20.068Z,97.50
2019-04-10T04:10:49.050Z,97.40
2019-04-10T04:13:19.475Z,97.50
2019-04-10T04:15:48.598Z,97.70
2019-04-10T04:18:17.350Z,97.70
2019-04-10T04:20:47.548Z,97.50
2019-04-10T04:23:17.167Z,97.60
2019-04-10T04:25:46.445Z,97.60
2019-04-10T04:28:16.825Z,97.30
2019-04-10T04:30:45.987Z,97.60
2019-04-10T04:33:15.490Z,97.50
2019-04-10T04:35:44.313Z,97.70
2019-04-10T04:38:13.495Z,97.70
2019-04-10T04:40:42.503Z,97.60
2019-04-10T04:43:14.615Z,97.70
2019-04-10T04:45:44.272Z,97.70
2019-04-10T04:48:13.098Z,97.80
2019-04-10T04:50:41.866Z,97.60
2019-04-10T04:53:10.889Z,97.70
2019-04-10T04:55:39.894Z,97.80
2019-04-10T04:58:09.682Z,97.80
2019-04-10T05:00:39.578Z,98.00
2019-04-10T05:03:08.487Z,97.90
2019-04-10T05:05:37.746Z,98.00
2019-04-10T05:08:07.322Z,98.30
2019-04-10T05:10:37.796Z,98.10
2019-04-10T05:13:08.131Z,98.00
2019-04-10T05:15:37.385Z,98.10
2019-04-10T05:18:06.656Z,98.10
2019-04-10T05:20:44.108Z,98.50
2019-04-10T05:23:06.222Z,98.20
2019-04-10T05:25:41.538Z,97.90
2019-04-10T05:28:11.259Z,98.30
2019-04-10T05:30:41.129Z,98.20
2019-04-10T05:33:10.006Z,98.10
2019-04-10T05:35:39.806Z,98.00
2019-04-10T05:38:08.734Z,98.20
2019-04-10T05:40:38.093Z,98.10
2019-04-10T05:43:06.834Z,98.30
2019-04-10T05:45:36.085Z,98.10
2019-04-10T05:48:04.922Z,98.20
2019-04-10T05:50:34.287Z,98.20
2019-04-10T05:53:04.287Z,97.70
2019-04-10T05:55:34.469Z,98.30
2019-04-10T05:58:03.626Z,97.90
2019-04-10T06:00:32.759Z,97.80
2019-04-10T06:03:01.782Z,97.80
2019-04-10T06:05:30.697Z,97.90
2019-04-10T06:07:59.432Z,97.90
2019-04-10T06:10:28.276Z,97.80
2019-04-10T06:12:58.331Z,98.00
2019-04-10T06:15:28.642Z,97.90
2019-04-10T06:17:58.601Z,97.90
2019-04-10T06:20:27.602Z,97.60
2019-04-10T06:22:56.399Z,97.50
2019-04-10T06:25:25.378Z,97.30
2019-04-10T06:27:54.727Z,96.60
2019-04-10T06:30:23.936Z,96.90
2019-04-10T06:32:53.860Z,97.00
2019-04-10T06:35:23.939Z,96.70
2019-04-10T06:37:52.850Z,97.00
2019-04-10T06:40:24.179Z,97.00
2019-04-10T06:42:54.892Z,96.60
2019-04-10T06:45:24.022Z,96.80
2019-04-10T06:47:53.353Z,96.50
2019-04-10T06:50:23.113Z,96.10
2019-04-10T06:52:52.320Z,95.70
2019-04-10T06:55:21.676Z,95.80
2019-04-10T06:57:55.850Z,95.60
2019-04-10T07:00:22.892Z,95.90
2019-04-10T07:02:52.687Z,94.90
2019-04-10T07:05:22.008Z,95.50
2019-04-10T07:07:55.921Z,95.20
2019-04-10T07:10:28.600Z,95.30
2019-04-10T07:12:53.367Z,95.10
2019-04-10T07:15:23.989Z,95.50
2019-04-10T07:17:53.440Z,94.30
2019-04-10T07:20:22.503Z,94.20
2019-04-10T07:22:51.629Z,94.30
2019-04-10T07:25:21.701Z,93.80
2019-04-10T07:27:52.095Z,93.50
2019-04-10T07:30:24.059Z,93.30
2019-04-10T07:32:53.044Z,93.20
2019-04-10T07:35:23.579Z,93.30
2019-04-10T07:37:54.340Z,92.20
2019-04-10T07:40:23.229Z,92.90
2019-04-10T07:42:52.542Z,92.40
2019-04-10T07:45:26.429Z,91.80
2019-04-10T07:47:52.310Z,91.10
2019-04-10T07:50:21.075Z,91.10
2019-04-10T07:52:50.314Z,90.70
2019-04-10T07:55:19.126Z,90.70
2019-04-10T07:57:50.006Z,90.10
2019-04-10T08:00:20.046Z,90.50
2019-04-10T08:02:49.212Z,90.20
2019-04-10T08:05:18.884Z,89.00
2019-04-10T08:07:47.970Z,88.50
2019-04-10T08:10:17.898Z,87.60
2019-04-10T08:12:50.961Z,86.70
2019-04-10T08:15:17.439Z,84.40
2019-04-10T08:17:49.279Z,85.30
2019-04-10T08:20:17.709Z,84.70
2019-04-10T08:22:46.908Z,82.40
2019-04-10T08:25:16.292Z,80.80
2019-04-10T08:27:45.987Z,80.10
2019-04-10T08:30:15.454Z,79.40
2019-04-10T08:32:53.313Z,79.30
2019-04-10T08:35:15.502Z,77.80
2019-04-10T08:37:45.286Z,78.70
2019-04-10T08:40:15.722Z,76.10
2019-04-10T08:42:46.168Z,78.90
2019-04-10T08:45:16.812Z,72.00
2019-04-10T08:47:46.175Z,74.60
2019-04-10T08:50:15.340Z,75.20
2019-04-10T08:52:44.682Z,74.20
2019-04-10T08:55:13.516Z,72.40
2019-04-10T08:57:42.374Z,70.60
2019-04-10T09:00:12.209Z,72.10
2019-04-10T09:02:42.319Z,70.50
2019-04-10T09:05:11.866Z,67.30
2019-04-10T09:07:41.211Z,68.40
2019-04-10T09:10:10.298Z,68.20
2019-04-10T09:12:39.543Z,66.50
2019-04-10T09:15:09.752Z,66.70
2019-04-10T09:17:39.886Z,64.30
2019-04-10T09:20:09.234Z,65.30
2019-04-10T09:22:57.975Z,65.40
2019-04-10T09:25:09.251Z,61.70
2019-04-10T09:27:39.912Z,62.40
2019-04-10T09:30:10.891Z,63.60
2019-04-10T09:32:39.784Z,62.80
2019-04-10T09:35:09.212Z,63.60
2019-04-10T09:37:38.155Z,63.70
2019-04-10T09:40:08.862Z,62.00
2019-04-10T09:42:38.287Z,61.00
2019-04-10T09:45:07.610Z,61.10
2019-04-10T09:47:36.954Z,60.10
2019-04-10T09:50:07.783Z,63.60
2019-04-10T09:52:37.562Z,60.40
2019-04-10T09:55:07.530Z,60.40
2019-04-10T09:57:36.785Z,62.60
2019-04-10T10:00:07.540Z,63.20
2019-04-10T10:02:37.856Z,62.40
2019-04-10T10:05:08.501Z,59.70
2019-04-10T10:07:38.969Z,59.70
2019-04-10T10:10:08.751Z,58.00
2019-04-10T10:12:38.680Z,58.00
2019-04-10T10:15:09.309Z,58.40
2019-04-10T10:17:39.263Z,57.30
2019-04-10T10:20:09.978Z,57.20
2019-04-10T10:22:43.822Z,55.60
2019-04-10T10:25:15.634Z,56.30
2019-04-10T10:27:44.740Z,53.60
2019-04-10T10:30:13.882Z,51.00
2019-04-10T10:32:43.800Z,50.70
2019-04-10T10:35:12.842Z,52.50
2019-04-10T10:37:41.595Z,50.20
2019-04-10T10:40:11.784Z,49.50
2019-04-10T10:42:41.456Z,48.60
2019-04-10T10:45:14.495Z,52.50
2019-04-10T10:47:44.395Z,51.10
2019-04-10T10:50:13.567Z,50.40
2019-04-10T10:52:42.390Z,48.50
2019-04-10T10:55:11.685Z,48.40
2019-04-10T10:57:41.543Z,49.90
2019-04-10T11:00:13.226Z,49.90
2019-04-10T11:02:43.658Z,49.30
2019-04-10T11:05:13.036Z,47.70
2019-04-10T11:07:42.892Z,48.30
2019-04-10T11:10:12.589Z,48.60
2019-04-10T11:12:42.399Z,49.50
2019-04-10T11:15:13.872Z,48.70
2019-04-10T11:17:44.713Z,50.30
2019-04-10T11:20:15.188Z,46.90
2019-04-10T11:22:44.936Z,48.90
2019-04-10T11:25:15.593Z,47.90
2019-04-10T11:27:44.817Z,46.20
2019-04-10T11:30:14.587Z,47.20
2019-04-10T11:32:44.462Z,47.90
2019-04-10T11:35:15.752Z,46.90
2019-04-10T11:37:49.579Z,43.50
2019-04-10T11:40:18.038Z,46.30
2019-04-10T11:42:47.641Z,46.70
2019-04-10T11:47:50.474Z,44.10
2019-04-10T11:50:18.884Z,42.80
2019-04-10T11:52:52.508Z,43.60
2019-04-10T11:57:51.496Z,43.80
2019-04-10T12:03:10.012Z,39.50
2019-04-10T12:05:41.237Z,39.10
2019-04-10T12:08:36.288Z,40.60
2019-04-10T12:13:12.788Z,38.90
2019-04-10T12:15:43.077Z,39.40
2019-04-10T12:18:14.038Z,43.20
2019-04-10T12:20:43.798Z,42.00
2019-04-10T12:23:12.810Z,41.10
2019-04-10T12:25:41.659Z,42.00
2019-04-10T12:28:11.699Z,40.80
2019-04-10T12:30:41.712Z,41.70
2019-04-10T12:33:11.717Z,41.20
2019-04-10T12:35:42.289Z,39.90
2019-04-10T12:38:13.255Z,42.40
2019-04-10T12:40:42.590Z,42.50
2019-04-10T12:43:12.649Z,42.40
2019-04-10T12:45:41.873Z,42.10
2019-04-10T12:48:10.889Z,41.40
2019-04-10T12:50:39.675Z,40.60
2019-04-10T12:53:09.404Z,39.90
2019-04-10T12:55:38.955Z,40.80
2019-04-10T12:58:13.601Z,41.10
2019-04-10T13:00:38.793Z,40.10
2019-04-10T13:03:08.325Z,38.20
2019-04-10T13:05:38.010Z,38.80
2019-04-10T13:08:19.146Z,39.30
2019-04-10T13:10:38.196Z,39.20
2019-04-10T13:13:07.416Z,39.50
2019-04-10T13:15:37.204Z,37.80
2019-04-10T13:18:06.357Z,39.00
2019-04-10T13:20:35.185Z,36.50
2019-04-10T13:23:04.530Z,36.40
2019-04-10T13:25:34.501Z,36.70
2019-04-10T13:28:03.664Z,36.80
2019-04-10T13:30:44.104Z,36.90
2019-04-10T13:33:04.576Z,37.20
2019-04-10T13:35:34.441Z,36.40
2019-04-10T13:38:03.376Z,36.70
2019-04-10T13:40:32.599Z,36.00
2019-04-10T13:43:01.874Z,37.80
2019-04-10T13:45:32.393Z,38.30
2019-04-10T13:48:01.352Z,35.90
2019-04-10T13:50:30.771Z,37.30
2019-04-10T13:52:59.881Z,36.60
2019-04-10T13:55:28.730Z,35.90
2019-04-10T13:57:59.903Z,34.90
2019-04-10T14:00:39.926Z,36.00
2019-04-10T14:03:10.086Z,37.30
2019-04-10T14:05:40.848Z,37.10
2019-04-10T14:08:10.436Z,35.10
2019-04-10T14:10:44.591Z,34.80
2019-04-10T14:13:14.330Z,35.20
2019-04-10T14:15:44.261Z,36.10
2019-04-10T14:18:14.416Z,34.80
2019-04-10T14:20:43.719Z,34.80
2019-04-10T14:23:28.643Z,35.20
2019-04-10T14:26:04.510Z,37.20
2019-04-10T14:28:33.419Z,37.50
2019-04-10T14:31:07.449Z,35.60
2019-04-10T14:33:37.787Z,34.00
2019-04-10T14:36:07.581Z,35.40
2019-04-10T14:38:36.479Z,35.20
2019-04-10T14:41:05.528Z,34.70
2019-04-10T14:43:34.725Z,34.20
2019-04-10T14:46:04.690Z,34.30
2019-04-10T14:48:33.448Z,35.40
2019-04-10T14:51:02.451Z,36.60
2019-04-10T14:53:31.477Z,34.70
2019-04-10T14:56:00.474Z,31.20
2019-04-10T14:58:31.292Z,33.40
2019-04-10T15:01:00.006Z,33.50
2019-04-10T15:03:29.019Z,33.80
2019-04-10T15:05:59.823Z,32.60
2019-04-10T15:08:28.845Z,31.60
2019-04-10T15:10:58.274Z,31.70
2019-04-10T15:13:27.146Z,32.80
2019-04-10T15:15:56.732Z,32.90
2019-04-10T15:18:26.793Z,32.10
2019-04-10T15:20:56.579Z,34.30
2019-04-10T15:23:25.902Z,34.20
2019-04-10T15:25:55.494Z,32.00
2019-04-10T15:28:25.394Z,31.90
2019-04-10T15:30:55.126Z,32.60
2019-04-10T15:33:44.482Z,33.30
2019-04-10T15:36:13.780Z,30.90
2019-04-10T15:38:44.254Z,31.80
2019-04-10T15:41:13.312Z,31.60
2019-04-10T15:43:43.432Z,30.60
2019-04-10T15:46:12.914Z,32.50
2019-04-10T15:48:41.929Z,31.60
2019-04-10T15:51:11.993Z,31.00
2019-04-10T15:53:41.342Z,30.20
2019-04-10T15:56:11.749Z,30.60
2019-04-10T15:58:41.678Z,30.40
2019-04-10T16:01:15.970Z,30.80
2019-04-10T16:03:44.996Z,32.00
2019-04-10T16:06:15.183Z,29.80
2019-04-10T16:08:44.842Z,30.00
2019-04-10T16:11:31.995Z,31.20
2019-04-10T16:14:04.197Z,30.80
2019-04-10T16:16:50.740Z,30.80
2019-04-10T16:19:29.324Z,30.90
2019-04-10T16:21:59.839Z,31.80
2019-04-10T16:24:29.552Z,31.10
2019-04-10T16:26:58.445Z,30.10
2019-04-10T16:29:28.764Z,30.00
2019-04-10T16:31:58.007Z,31.90
2019-04-10T16:34:26.998Z,31.40
2019-04-10T16:36:57.627Z,30.50
2019-04-10T16:39:27.871Z,30.00
2019-04-10T16:41:57.962Z,32.10
2019-04-10T16:44:28.941Z,30.90
2019-04-10T16:46:58.521Z,32.00
2019-04-10T16:49:28.896Z,31.00
2019-04-10T16:51:58.812Z,31.70
2019-04-10T16:54:29.247Z,30.90
2019-04-10T16:56:58.505Z,30.90
2019-04-10T16:59:29.911Z,30.80
2019-04-10T17:02:00.285Z,31.00
2019-04-10T17:04:30.237Z,30.40
2019-04-10T17:07:00.850Z,30.20
2019-04-10T17:09:32.367Z,30.40
2019-04-10T17:12:03.839Z,31.40
2019-04-10T17:14:35.624Z,31.90
2019-04-10T17:17:06.153Z,32.30
2019-04-10T17:19:46.525Z,30.90
2019-04-10T17:22:06.768Z,31.90
2019-04-10T17:24:36.112Z,32.90
2019-04-10T17:27:06.380Z,33.20
2019-04-10T17:29:39.349Z,34.40
2019-04-10T17:32:13.203Z,34.90
2019-04-10T17:34:43.000Z,36.10
2019-04-10T17:37:12.025Z,36.90
2019-04-10T17:39:41.961Z,37.20
2019-04-10T17:42:10.815Z,38.30
2019-04-10T17:44:40.167Z,38.70
2019-04-10T17:47:09.978Z,39.40
2019-04-10T17:49:39.309Z,40.10
2019-04-10T17:52:08.712Z,40.30
2019-04-10T17:54:38.706Z,40.80
2019-04-10T17:57:08.598Z,41.00
2019-04-10T17:59:38.548Z,41.00
2019-04-10T18:02:11.695Z,41.00
2019-04-10T18:04:42.167Z,41.60
2019-04-10T18:07:14.178Z,42.30
2019-04-10T18:09:43.322Z,43.30
2019-04-10T18:12:14.261Z,43.10
2019-04-10T18:14:44.255Z,43.30
2019-04-10T18:17:14.506Z,43.80
2019-04-10T18:19:44.594Z,45.20
2019-04-10T18:22:14.273Z,45.70
2019-04-10T18:24:43.667Z,45.80
2019-04-10T18:27:14.275Z,45.90
2019-04-10T18:29:43.867Z,46.50
2019-04-10T18:32:13.790Z,46.20
2019-04-10T18:34:46.469Z,46.60
2019-04-10T18:37:19.863Z,45.80
2019-04-10T18:39:48.548Z,46.30
2019-04-10T18:42:17.785Z,45.90
2019-04-10T18:44:47.022Z,45.90
2019-04-10T18:47:16.538Z,46.00
2019-04-10T18:49:47.487Z,46.90
2019-04-10T18:52:16.606Z,46.30
2019-04-10T18:54:47.801Z,46.20
2019-04-10T18:57:17.842Z,46.70
2019-04-10T19:00:06.139Z,46.80
2019-04-10T19:02:43.861Z,47.60
2019-04-10T19:05:19.511Z,47.70
2019-04-10T19:07:48.594Z,47.90
2019-04-10T19:10:17.881Z,48.20
2019-04-10T19:12:46.933Z,49.10
2019-04-10T19:15:17.008Z,49.80
2019-04-10T19:17:46.868Z,50.00
2019-04-10T19:20:17.860Z,50.40
2019-04-10T19:22:48.593Z,51.10
2019-04-10T19:25:18.773Z,50.90
2019-04-10T19:27:48.606Z,51.40
2019-04-10T19:30:37.291Z,51.30
2019-04-10T19:33:07.973Z,51.90
2019-04-10T19:35:37.372Z,52.60
2019-04-10T19:38:07.374Z,53.10
2019-04-10T19:40:38.350Z,53.50
2019-04-10T19:43:08.165Z,52.90
2019-04-10T19:45:37.321Z,53.00
2019-04-10T19:48:06.777Z,54.00
2019-04-10T19:50:37.226Z,53.40
2019-04-10T19:53:06.237Z,53.80
2019-04-10T19:55:35.904Z,54.00
2019-04-10T19:58:05.946Z,55.00
2019-04-10T20:00:36.786Z,55.20
2019-04-10T20:03:05.962Z,54.90
2019-04-10T20:05:35.134Z,55.20
2019-04-10T20:08:05.101Z,56.70
2019-04-10T20:10:35.119Z,56.90
2019-04-10T20:13:04.771Z,57.40
2019-04-10T20:15:34.204Z,58.10
2019-04-10T20:18:04.293Z,59.00
2019-04-10T20:20:33.167Z,60.40
2019-04-10T20:23:02.595Z,60.00
2019-04-10T20:25:32.503Z,60.70
2019-04-10T20:28:02.634Z,61.20
2019-04-10T20:30:32.879Z,62.30
2019-04-10T20:33:02.880Z,63.20
2019-04-10T20:35:32.445Z,63.90
2019-04-10T20:38:01.425Z,64.20
2019-04-10T20:40:30.173Z,64.60
2019-04-10T20:42:59.013Z,65.30
2019-04-10T20:45:28.138Z,65.60
2019-04-10T20:47:58.202Z,66.60
2019-04-10T20:50:27.934Z,67.40
2019-04-10T20:52:57.734Z,68.20
2019-04-10T20:55:27.951Z,68.60
2019-04-10T20:57:56.821Z,69.50
2019-04-10T21:00:36.886Z,70.60
2019-04-10T21:03:07.032Z,70.90
2019-04-10T21:05:36.084Z,71.90
2019-04-10T21:08:05.475Z,73.20
2019-04-10T21:10:34.513Z,75.30
2019-04-10T21:13:04.518Z,76.80
2019-04-10T21:15:44.529Z,79.00
2019-04-10T21:18:13.346Z,80.10
2019-04-10T21:20:43.188Z,81.90
2019-04-10T21:23:13.120Z,81.40
2019-04-10T21:25:43.586Z,81.40
2019-04-10T21:28:14.067Z,83.40
2019-04-10T21:31:00.886Z,83.10
2019-04-10T21:34:01.253Z,82.50
2019-04-10T21:36:31.148Z,84.60
2019-04-10T21:39:01.025Z,85.50
2019-04-10T21:41:30.621Z,86.70
2019-04-10T21:44:00.345Z,87.60
2019-04-10T21:46:29.177Z,88.30
2019-04-10T21:48:58.183Z,89.90
2019-04-10T21:51:27.198Z,90.00
2019-04-10T21:53:56.247Z,90.10
2019-04-10T21:56:25.019Z,89.80
2019-04-10T21:58:54.864Z,89.60
2019-04-10T22:01:24.498Z,90.10
2019-04-10T22:03:54.201Z,90.10
2019-04-10T22:06:40.954Z,90.00
2019-04-10T22:09:28.585Z,90.00
2019-04-10T22:11:58.682Z,90.20
2019-04-10T22:14:28.220Z,90.40
2019-04-10T22:16:58.115Z,90.20
2019-04-10T22:19:28.336Z,90.40
2019-04-10T22:21:57.880Z,90.10
2019-04-10T22:24:26.825Z,90.60
2019-04-10T22:26:55.608Z,90.30
2019-04-10T22:29:24.512Z,90.00
2019-04-10T22:31:53.731Z,90.20
2019-04-10T22:34:23.022Z,90.70
2019-04-10T22:36:51.745Z,90.00
2019-04-10T22:39:20.482Z,90.10
2019-04-10T22:41:50.374Z,90.70
2019-04-10T22:44:19.732Z,90.60
2019-04-10T22:46:48.631Z,90.30
2019-04-10T22:49:18.063Z,90.30
2019-04-10T22:51:47.190Z,90.50
2019-04-10T22:54:15.927Z,90.80
2019-04-10T22:56:45.638Z,91.00
2019-04-10T22:59:15.601Z,90.90
2019-04-10T23:01:45.354Z,91.20
2019-04-10T23:04:14.251Z,90.60
2019-04-10T23:06:43.037Z,90.00
2019-04-10T23:09:13.855Z,91.00
2019-04-10T23:11:45.381Z,90.70
2019-04-10T23:14:14.378Z,90.90
2019-04-10T23:16:44.228Z,91.20
2019-04-10T23:19:14.081Z,91.00
2019-04-10T23:21:43.192Z,91.10
2019-04-10T23:24:11.981Z,91.10
2019-04-10T23:26:41.618Z,90.90
2019-04-10T23:29:10.429Z,91.10
2019-04-10T23:31:39.559Z,90.90
2019-04-10T23:34:08.679Z,90.80
2019-04-10T23:36:38.156Z,91.00
2019-04-10T23:39:08.081Z,90.60
2019-04-10T23:41:37.909Z,90.50
2019-04-10T23:44:06.997Z,90.50
2019-04-10T23:46:36.761Z,90.60
2019-04-10T23:49:05.656Z,90.70
2019-04-10T23:51:34.847Z,90.60
2019-04-10T23:54:04.721Z,90.80
2019-04-10T23:56:33.687Z,90.80
2019-04-10T23:59:02.531Z,90.40
